Time;durP1;ratioP1;P1;durP2;ratioP2;P2;SDS_P1;SDS_P2;PMS_P1;PMS_P2;Temp;Humidity;BMP_temperature;BMP_pressure;BME280_temperature;BME280_humidity;BME280_pressure;Samples;Min_cycle;Max_cycle;Signal;HPM_P1;HPM_P2
2023/02/28 00:00:14;;;;;;;12.88;7.10;;;;;;;16.81;100.00;101548.63;2083499;28;20827;-77
2023/02/28 00:01:36;;;;;;;12.57;6.97;;;;;;;16.82;100.00;101557.50;2093982;28;20140;-78
2023/02/28 00:02:59;;;;;;;11.68;7.18;;;;;;;16.81;100.00;101555.72;2092381;28;20052;-78
2023/02/28 00:04:21;;;;;;;11.80;7.35;;;;;;;16.80;100.00;101553.97;2095908;28;20040;-77
2023/02/28 00:05:43;;;;;;;12.60;7.35;;;;;;;16.80;100.00;101548.63;2086355;28;20033;-77
2023/02/28 00:07:05;;;;;;;10.90;7.18;;;;;;;16.79;100.00;101545.09;2090986;28;20048;-77
2023/02/28 00:08:27;;;;;;;9.10;5.25;;;;;;;16.78;100.00;101556.63;2092485;28;20086;-78
2023/02/28 00:09:49;;;;;;;11.82;7.55;;;;;;;16.78;100.00;101563.72;2087437;28;20049;-77
2023/02/28 00:11:15;;;;;;;12.52;6.82;;;;;;;16.77;100.00;101559.28;2092052;28;20492;-77
2023/02/28 00:12:37;;;;;;;12.85;7.50;;;;;;;16.78;100.00;101555.72;2089626;28;20048;-77
2023/02/28 00:14:00;;;;;;;12.57;6.70;;;;;;;16.76;100.00;101561.06;2094148;28;20492;-78
2023/02/28 00:15:22;;;;;;;13.68;7.88;;;;;;;16.74;100.00;101562.81;2093743;28;20057;-78
2023/02/28 00:16:45;;;;;;;12.63;7.10;;;;;;;16.73;100.00;101555.72;2094536;28;20102;-77
2023/02/28 00:18:06;;;;;;;11.50;6.72;;;;;;;16.73;100.00;101561.97;2086355;28;20060;-77
2023/02/28 00:19:28;;;;;;;9.13;6.22;;;;;;;16.73;100.00;101558.41;2086588;28;20053;-78
2023/02/28 00:20:50;;;;;;;12.27;6.78;;;;;;;16.73;100.00;101542.41;2087692;28;20045;-78
2023/02/28 00:22:12;;;;;;;14.07;6.82;;;;;;;16.73;100.00;101521.97;2085913;28;20045;-78
2023/02/28 00:23:34;;;;;;;10.15;6.35;;;;;;;16.75;100.00;101484.59;2094714;28;20704;-77
2023/02/28 00:24:56;;;;;;;9.32;5.20;;;;;;;16.78;100.00;101484.63;2088698;28;20055;-78
2023/02/28 00:26:20;;;;;;;11.35;5.15;;;;;;;16.83;100.00;101496.19;2094762;28;20049;-77
2023/02/28 00:27:42;;;;;;;10.85;4.78;;;;;;;16.86;100.00;101480.19;2093306;28;20048;-78
2023/02/28 00:29:04;;;;;;;9.30;4.63;;;;;;;16.92;100.00;101473.97;2086232;28;20147;-77
2023/02/28 00:30:25;;;;;;;8.50;4.50;;;;;;;16.95;100.00;101452.63;2090885;28;20106;-78
2023/02/28 00:31:48;;;;;;;9.18;4.57;;;;;;;16.96;100.00;101428.63;2085145;28;20057;-78
2023/02/28 00:33:11;;;;;;;9.90;4.55;;;;;;;16.98;100.00;101429.53;2091461;28;20516;-78
2023/02/28 00:34:37;;;;;;;7.90;5.10;;;;;;;17.01;100.00;101433.97;2088341;28;20061;-78
2023/02/28 00:36:06;;;;;;;8.93;4.65;;;;;;;17.02;100.00;101423.28;2089561;28;20053;-78
2023/02/28 00:37:30;;;;;;;9.50;4.25;;;;;;;17.03;100.00;101408.19;2088610;28;20059;-78
2023/02/28 00:38:53;;;;;;;6.43;3.47;;;;;;;17.07;100.00;101409.94;2084549;28;20053;-77
2023/02/28 00:40:15;;;;;;;6.25;3.50;;;;;;;17.09;100.00;101416.16;2075632;28;20497;-78
2023/02/28 00:41:38;;;;;;;7.18;4.35;;;;;;;17.13;99.40;101431.31;2083342;28;20163;-78
2023/02/28 00:43:00;;;;;;;10.75;5.32;;;;;;;17.15;97.35;101445.53;2078000;28;20077;-78
2023/02/28 00:44:23;;;;;;;8.70;5.00;;;;;;;17.18;96.98;101463.31;2089735;28;20130;-77
2023/02/28 00:45:45;;;;;;;7.80;4.55;;;;;;;17.18;97.11;101471.31;2085387;28;20041;-78
2023/02/28 00:47:06;;;;;;;7.32;3.85;;;;;;;17.20;95.98;101483.75;2087031;28;20053;-78
2023/02/28 00:48:29;;;;;;;8.77;4.00;;;;;;;17.20;93.46;101496.25;2102904;28;20150;-78
2023/02/28 00:49:50;;;;;;;6.40;3.83;;;;;;;17.19;93.62;101486.44;2094431;28;20047;-78
2023/02/28 00:51:12;;;;;;;5.68;3.75;;;;;;;17.18;92.95;101485.56;2084656;28;20479;-77
2023/02/28 00:52:34;;;;;;;5.30;2.40;;;;;;;17.21;81.46;101473.97;2091047;28;20078;-77
2023/02/28 00:53:56;;;;;;;6.93;2.03;;;;;;;17.33;68.45;101452.63;2093314;28;20056;-78
2023/02/28 00:55:19;;;;;;;6.32;1.98;;;;;;;17.44;65.17;101427.72;2088303;28;20065;-78
2023/02/28 00:56:45;;;;;;;7.57;3.03;;;;;;;17.54;62.15;101426.78;2083507;28;20128;-78
2023/02/28 00:58:07;;;;;;;6.72;2.63;;;;;;;17.61;62.34;101419.69;2091191;28;20149;-78
2023/02/28 00:59:29;;;;;;;5.00;1.90;;;;;;;17.63;60.72;101411.69;2090788;28;20523;-78
2023/02/28 01:00:52;;;;;;;5.78;2.83;;;;;;;17.70;59.84;101386.72;2084870;28;20555;-78
2023/02/28 01:02:14;;;;;;;6.35;2.58;;;;;;;17.75;57.45;101375.13;2086933;28;20090;-79
2023/02/28 01:03:36;;;;;;;8.82;3.22;;;;;;;17.80;54.68;101389.34;2102874;28;20499;-78
2023/02/28 01:04:58;;;;;;;6.00;2.22;;;;;;;17.87;48.01;101366.16;2084512;28;20460;-77
2023/02/28 01:06:20;;;;;;;8.27;2.58;;;;;;;18.00;43.80;101340.28;2083201;28;20049;-78
2023/02/28 01:07:42;;;;;;;6.18;2.58;;;;;;;18.10;42.78;101326.88;2102000;28;20040;-79
2023/02/28 01:09:04;;;;;;;6.03;2.17;;;;;;;18.22;40.92;101356.19;2095657;28;20044;-78
2023/02/28 01:10:31;;;;;;;5.65;2.70;;;;;;;18.45;40.11;101371.16;2082700;28;20132;-78
2023/02/28 01:11:53;;;;;;;4.78;2.50;;;;;;;18.58;40.00;101386.25;2089843;28;20044;-78
2023/02/28 01:13:16;;;;;;;7.57;3.22;;;;;;;18.67;39.46;101364.81;2091887;28;20122;-78
2023/02/28 01:14:39;;;;;;;6.80;2.88;;;;;;;18.72;38.68;101371.00;2092867;28;20581;-78
2023/02/28 01:16:00;;;;;;;6.25;2.78;;;;;;;18.77;37.52;101376.34;2080516;28;20052;-78
2023/02/28 01:17:22;;;;;;;7.53;2.88;;;;;;;18.84;36.08;101368.22;2082697;28;20051;-78
2023/02/28 01:18:44;;;;;;;4.60;2.60;;;;;;;18.91;35.80;101394.03;2089640;28;20048;-78
2023/02/28 01:20:07;;;;;;;8.50;3.55;;;;;;;18.95;35.22;101385.09;2094307;28;20094;-78
2023/02/28 01:21:29;;;;;;;8.85;3.25;;;;;;;18.98;34.97;101395.75;2097730;28;20040;-78
2023/02/28 01:22:52;;;;;;;7.18;3.22;;;;;;;19.00;35.34;101396.63;2079903;28;20045;-78
2023/02/28 01:24:13;;;;;;;8.32;3.10;;;;;;;19.00;35.07;101375.22;2091166;28;20055;-78
2023/02/28 01:25:35;;;;;;;7.38;4.13;;;;;;;19.09;34.85;101380.50;2081544;28;20901;-78
2023/02/28 01:27:00;;;;;;;7.68;3.00;;;;;;;19.11;34.87;101349.25;2089483;28;20136;-78
2023/02/28 01:28:23;;;;;;;9.43;3.08;;;;;;;19.19;33.66;101350.94;2084668;28;20049;-78
2023/02/28 01:29:45;;;;;;;8.45;3.50;;;;;;;19.31;33.16;101350.81;2074919;28;20417;-79
2023/02/28 01:31:08;;;;;;;7.90;3.25;;;;;;;19.37;33.49;101346.28;2090917;28;20043;-78
2023/02/28 01:32:33;;;;;;;7.85;3.33;;;;;;;19.33;34.04;101352.59;2081848;28;20575;-77
2023/02/28 01:33:54;;;;;;;6.97;3.40;;;;;;;19.30;34.77;101357.97;2087465;28;20063;-78
2023/02/28 01:35:16;;;;;;;13.65;3.67;;;;;;;19.24;35.59;101343.75;2084313;28;20049;-78
2023/02/28 01:36:40;;;;;;;10.63;4.00;;;;;;;19.17;36.17;101329.53;2089770;28;20049;-78
2023/02/28 01:38:01;;;;;;;6.28;3.75;;;;;;;19.17;35.68;101342.03;2084964;28;20487;-78
2023/02/28 01:39:23;;;;;;;5.70;3.03;;;;;;;19.15;35.28;101365.28;2084808;28;20040;-78
2023/02/28 01:40:45;;;;;;;6.75;3.50;;;;;;;19.18;35.12;101347.38;2084850;28;20136;-78
2023/02/28 01:42:10;;;;;;;12.10;4.20;;;;;;;19.19;35.30;101326.88;2081272;28;20064;-78
2023/02/28 01:43:51;;;;;;;6.40;3.85;;;;;;;19.19;35.61;101334.88;2089859;28;20575;-78
2023/02/28 01:45:23;;;;;;;8.15;3.30;;;;;;;19.14;36.29;101353.69;2095488;28;20091;-78
2023/02/28 01:46:45;;;;;;;7.75;4.20;;;;;;;19.09;36.14;101340.34;2093669;28;20048;-78
2023/02/28 01:48:10;;;;;;;9.48;3.78;;;;;;;19.09;36.20;101344.81;2084721;28;20068;-78
2023/02/28 01:49:32;;;;;;;6.60;3.90;;;;;;;19.06;36.69;101351.09;2083374;28;20056;-77
2023/02/28 01:50:59;;;;;;;9.88;3.92;;;;;;;19.02;36.57;101338.66;2092028;28;20040;-78
2023/02/28 01:52:24;;;;;;;9.65;3.80;;;;;;;18.98;36.66;101336.00;2077798;28;20076;-78
2023/02/28 01:53:53;;;;;;;9.40;4.30;;;;;;;18.95;36.67;101350.31;2078869;28;20052;-78
2023/02/28 01:55:17;;;;;;;9.30;3.60;;;;;;;18.92;36.58;101361.03;2084630;28;20053;-78
2023/02/28 01:56:41;;;;;;;7.55;3.72;;;;;;;18.92;36.80;101353.00;2088149;28;20532;-77
2023/02/28 01:58:07;;;;;;;8.77;3.65;;;;;;;18.89;36.48;101358.41;2084788;28;20065;-77
2023/02/28 01:59:34;;;;;;;7.65;4.05;;;;;;;18.90;36.63;101359.28;2077947;28;20061;-78
2023/02/28 02:00:57;;;;;;;8.05;4.35;;;;;;;18.88;37.38;101378.03;2080838;28;20102;-77
2023/02/28 02:02:21;;;;;;;8.20;4.65;;;;;;;18.91;37.21;101355.69;2085683;28;20044;-77
2023/02/28 02:03:43;;;;;;;7.15;4.30;;;;;;;18.96;36.81;101360.13;2077687;28;20053;-77
2023/02/28 02:05:08;;;;;;;12.20;5.25;;;;;;;19.06;36.75;101355.53;2089185;28;20485;-78
2023/02/28 02:06:35;;;;;;;10.05;4.82;;;;;;;19.08;37.39;101343.94;2094103;28;20063;-78
2023/02/28 02:08:01;;;;;;;7.82;4.57;;;;;;;19.07;37.76;101362.69;2092332;28;20098;-77
2023/02/28 02:09:23;;;;;;;11.25;5.07;;;;;;;19.03;37.41;101367.16;2087955;28;20041;-77
2023/02/28 02:10:47;;;;;;;10.65;5.28;;;;;;;19.00;37.94;101368.97;2085148;28;20048;-78
2023/02/28 02:12:22;;;;;;;9.70;4.80;;;;;;;18.97;38.13;101385.94;2081333;28;20416;-78
2023/02/28 02:14:00;;;;;;;10.30;4.90;;;;;;;18.89;38.68;101374.44;2086393;28;20052;-78
2023/02/28 02:15:30;;;;;;;10.82;5.60;;;;;;;18.86;38.97;101385.16;2086978;28;20122;-78
2023/02/28 02:17:08;;;;;;;12.80;5.65;;;;;;;18.89;38.55;101389.59;2085316;28;20048;-78
2023/02/28 02:18:38;;;;;;;9.90;5.43;;;;;;;18.91;38.52;101393.13;2087809;28;20053;-78
2023/02/28 02:20:28;;;;;;;9.02;5.35;;;;;;;18.87;39.00;101394.97;2078440;28;20065;-78
2023/02/28 02:22:22;;;;;;;12.07;5.50;;;;;;;18.78;39.73;101392.34;2088392;28;20467;-78
2023/02/28 02:24:15;;;;;;;9.32;6.10;;;;;;;18.75;40.48;101400.41;2096459;28;20044;-78
2023/02/28 02:25:43;;;;;;;10.68;6.20;;;;;;;18.73;40.41;101433.41;2096351;28;20064;-77
2023/02/28 02:27:18;;;;;;;12.30;6.00;;;;;;;18.73;39.72;101453.03;2086229;28;20041;-78
2023/02/28 02:29:32;;;;;;;9.07;5.10;;;;;;;18.69;39.55;101483.41;2101959;28;20367;-78
2023/02/28 02:31:12;;;;;;;11.38;5.90;;;;;;;18.78;38.11;101451.22;2095978;28;20037;-78
2023/02/28 02:33:04;;;;;;;8.90;4.78;;;;;;;19.03;36.20;101468.00;2095070;28;20045;-78
2023/02/28 02:34:38;;;;;;;8.88;4.43;;;;;;;19.07;36.39;101451.88;2088081;28;20040;-78
2023/02/28 02:36:08;;;;;;;8.45;5.10;;;;;;;19.05;36.31;101442.97;2089123;28;20064;-78
2023/02/28 02:37:37;;;;;;;7.97;4.70;;;;;;;19.01;36.84;101453.72;2094852;28;20060;-78
2023/02/28 02:39:06;;;;;;;8.52;4.82;;;;;;;18.95;37.59;101475.19;2085945;28;20057;-78
2023/02/28 02:40:34;;;;;;;10.55;4.93;;;;;;;18.88;38.00;101477.03;2089619;28;20425;-78
2023/02/28 02:42:01;;;;;;;9.95;6.07;;;;;;;18.85;39.11;101484.16;2093634;28;20052;-78
2023/02/28 02:43:31;;;;;;;10.00;6.28;;;;;;;18.81;40.40;101477.97;2093610;28;20411;-78
2023/02/28 02:45:00;;;;;;;16.35;9.60;;;;;;;18.78;43.41;101471.72;2087413;28;20049;-78
2023/02/28 02:46:30;;;;;;;12.50;7.88;;;;;;;18.75;48.28;101467.31;2080082;28;20735;-78
2023/02/28 02:47:55;;;;;;;13.25;9.40;;;;;;;18.74;50.77;101453.94;2092800;28;20067;-78
2023/02/28 02:49:22;;;;;;;14.32;9.20;;;;;;;18.69;52.86;101429.88;2094715;28;20056;-78
2023/02/28 02:50:54;;;;;;;11.38;7.75;;;;;;;18.62;54.71;101394.28;2086370;28;20037;-78
2023/02/28 02:52:18;;;;;;;18.48;9.50;;;;;;;18.57;56.50;101411.25;2093143;28;20044;-78
2023/02/28 02:53:45;;;;;;;17.52;9.55;;;;;;;18.58;59.12;101400.53;2087082;28;20061;-77
2023/02/28 02:55:10;;;;;;;15.20;9.30;;;;;;;18.60;59.77;101440.63;2092730;28;20045;-78
2023/02/28 02:56:35;;;;;;;15.55;9.45;;;;;;;18.59;60.40;101465.59;2086741;28;20146;-78
2023/02/28 02:58:02;;;;;;;16.38;9.70;;;;;;;18.56;61.36;101482.56;2084585;28;20037;-78
2023/02/28 02:59:29;;;;;;;16.13;9.63;;;;;;;18.52;62.67;101469.19;2089426;28;20079;-79
2023/02/28 03:00:55;;;;;;;18.95;9.88;;;;;;;18.49;63.81;101486.16;2079392;28;20041;-78
2023/02/28 03:02:20;;;;;;;14.50;9.77;;;;;;;18.47;65.57;101477.22;2093178;28;20044;-78
2023/02/28 03:03:43;;;;;;;16.55;10.68;;;;;;;18.48;67.00;101479.00;2094268;28;20496;-78
2023/02/28 03:05:15;;;;;;;16.80;11.13;;;;;;;18.50;67.53;101476.34;2086295;28;20052;-78
2023/02/28 03:06:37;;;;;;;15.43;9.85;;;;;;;18.48;68.55;101451.38;2085193;28;20429;-78
2023/02/28 03:08:01;;;;;;;15.05;9.85;;;;;;;18.48;69.02;101480.78;2093997;28;20097;-78
2023/02/28 03:09:25;;;;;;;15.27;9.30;;;;;;;18.50;69.15;101462.97;2094408;28;20115;-78
2023/02/28 03:10:51;;;;;;;15.60;9.98;;;;;;;18.51;69.10;101470.09;2093634;28;20075;-78
2023/02/28 03:12:13;;;;;;;15.90;9.73;;;;;;;18.50;69.31;101463.84;2090961;28;20044;-78
2023/02/28 03:14:12;;;;;;;13.88;9.45;;;;;;;18.46;69.63;101477.22;2086841;28;20049;-78
2023/02/28 03:15:47;;;;;;;17.75;10.93;;;;;;;18.42;70.46;101480.84;2054999;28;20046;-78
2023/02/28 03:17:31;;;;;;;15.80;10.93;;;;;;;18.39;71.46;101478.16;2087147;28;20509;-78
2023/02/28 03:19:02;;;;;;;19.58;12.52;;;;;;;18.35;72.28;101471.06;2102628;28;20085;-78
2023/02/28 03:20:38;;;;;;;15.40;10.02;;;;;;;18.30;73.05;101455.06;2087059;28;20540;-79
2023/02/28 03:22:22;;;;;;;16.98;11.43;;;;;;;18.26;73.75;101434.56;2095377;28;20203;-79
2023/02/28 03:23:55;;;;;;;16.50;10.13;;;;;;;18.23;74.02;101429.25;2097847;28;20428;-78
2023/02/28 03:25:30;;;;;;;16.77;10.65;;;;;;;18.26;71.75;101426.53;2085456;28;20041;-78
2023/02/28 03:27:00;;;;;;;15.20;10.38;;;;;;;18.29;71.53;101432.78;2095108;28;20434;-79
2023/02/28 03:28:32;;;;;;;13.73;9.63;;;;;;;18.26;72.24;101440.78;2089225;28;20090;-79
2023/02/28 03:30:02;;;;;;;18.90;8.25;;;;;;;18.23;72.67;101459.53;2094018;28;20094;-78
2023/02/28 03:31:31;;;;;;;14.57;10.52;;;;;;;18.22;73.00;101456.88;2101468;28;20071;-78
2023/02/28 03:32:59;;;;;;;17.48;10.20;;;;;;;18.20;72.66;101464.88;2089116;28;20135;-78
2023/02/28 03:34:27;;;;;;;15.68;9.75;;;;;;;18.20;73.33;101464.88;2096100;28;20416;-78
2023/02/28 03:35:54;;;;;;;14.95;9.20;;;;;;;18.19;73.08;101484.47;2095918;28;20054;-78
2023/02/28 03:37:20;;;;;;;15.43;10.43;;;;;;;18.27;71.51;101479.13;2101494;28;20927;-78
2023/02/28 03:38:50;;;;;;;13.45;9.75;;;;;;;18.32;71.05;101463.94;2093428;28;20060;-78
2023/02/28 03:40:15;;;;;;;15.75;10.25;;;;;;;18.33;71.25;101466.59;2095400;28;20048;-77
2023/02/28 03:41:44;;;;;;;16.35;9.80;;;;;;;18.36;71.68;101456.81;2087079;28;20052;-78
2023/02/28 03:43:12;;;;;;;18.15;10.00;;;;;;;18.38;72.22;101455.03;2079140;28;20087;-78
2023/02/28 03:44:42;;;;;;;14.93;9.88;;;;;;;18.41;72.37;101463.00;2079794;28;20065;-79
2023/02/28 03:46:08;;;;;;;15.48;10.23;;;;;;;18.42;72.43;101449.63;2083698;28;20052;-78
2023/02/28 03:47:37;;;;;;;18.02;10.75;;;;;;;18.42;72.76;101438.94;2097036;28;20110;-78
2023/02/28 03:49:06;;;;;;;17.20;9.80;;;;;;;18.39;73.07;101435.38;2088964;28;20520;-77
2023/02/28 03:50:35;;;;;;;16.42;10.40;;;;;;;18.37;73.27;101439.88;2096021;28;20076;-78
2023/02/28 03:52:01;;;;;;;15.55;11.60;;;;;;;18.34;73.38;101427.41;2087405;28;20056;-78
2023/02/28 03:53:30;;;;;;;14.68;9.63;;;;;;;18.31;74.10;101422.94;2095016;28;20052;-78
2023/02/28 03:54:55;;;;;;;17.42;11.40;;;;;;;18.28;74.19;101409.59;2093075;28;20056;-78
2023/02/28 03:56:21;;;;;;;18.00;10.18;;;;;;;18.27;73.88;101405.16;2094385;28;20162;-78
2023/02/28 03:57:54;;;;;;;14.73;10.55;;;;;;;18.28;73.18;101411.38;2078237;28;20042;-78
2023/02/28 03:59:21;;;;;;;14.85;9.98;;;;;;;18.29;73.71;101415.84;2081915;28;20045;-77
2023/02/28 04:00:48;;;;;;;19.35;9.88;;;;;;;18.26;73.96;101415.84;2093225;28;20098;-78
2023/02/28 04:02:11;;;;;;;16.13;10.50;;;;;;;18.25;73.94;101422.97;2094633;28;20072;-78
2023/02/28 04:03:32;;;;;;;17.40;10.57;;;;;;;18.27;73.61;101431.00;2094016;28;20133;-78
2023/02/28 04:04:55;;;;;;;16.65;11.30;;;;;;;18.28;72.89;101439.00;2093200;28;20084;-78
2023/02/28 04:06:19;;;;;;;16.40;10.77;;;;;;;18.31;72.55;101449.69;2086471;28;20509;-77
2023/02/28 04:07:41;;;;;;;16.27;9.30;;;;;;;18.31;71.94;101436.31;2083540;28;20520;-78
2023/02/28 04:09:05;;;;;;;15.07;10.07;;;;;;;18.34;70.67;101432.75;2089371;28;20044;-78
2023/02/28 04:10:28;;;;;;;18.73;10.90;;;;;;;18.37;70.00;101424.72;2093916;28;20048;-77
2023/02/28 04:11:51;;;;;;;16.65;10.93;;;;;;;18.42;69.53;101430.91;2086585;28;20045;-78
2023/02/28 04:13:13;;;;;;;17.77;9.90;;;;;;;18.43;69.34;101424.69;2092247;28;20076;-78
2023/02/28 04:14:36;;;;;;;20.10;10.70;;;;;;;18.48;68.85;101432.66;2094486;28;20048;-79
2023/02/28 04:15:58;;;;;;;14.82;10.20;;;;;;;18.50;67.81;101434.44;2084464;28;20459;-77
2023/02/28 04:17:20;;;;;;;14.45;10.18;;;;;;;18.51;67.69;101446.03;2090005;28;20052;-77
2023/02/28 04:18:42;;;;;;;16.85;9.90;;;;;;;18.51;68.11;101440.69;2087822;28;20056;-78
2023/02/28 04:20:09;;;;;;;;;;;;;;;18.44;68.23;101444.28;2084852;28;20045;-78
2023/02/28 04:21:32;;;;;;;16.55;9.75;;;;;;;18.42;68.66;101438.94;2091471;28;19982;-78
2023/02/28 04:22:54;;;;;;;15.60;10.75;;;;;;;18.42;69.02;101428.25;2088932;28;20056;-77
2023/02/28 04:24:21;;;;;;;15.02;9.75;;;;;;;18.42;69.29;101436.28;2096278;28;20368;-78
2023/02/28 04:25:42;;;;;;;18.58;12.23;;;;;;;18.44;69.92;101428.25;2094828;28;20044;-78
2023/02/28 04:27:04;;;;;;;18.67;10.98;;;;;;;18.40;70.35;101421.13;2093646;28;20040;-78
2023/02/28 04:28:27;;;;;;;17.02;10.48;;;;;;;18.37;71.32;101411.34;2086146;28;20083;-78
2023/02/28 04:29:49;;;;;;;16.30;10.43;;;;;;;18.34;71.87;101416.69;2082507;28;20056;-77
2023/02/28 04:31:10;;;;;;;17.05;10.98;;;;;;;18.33;72.01;101405.13;2093113;28;20044;-78
2023/02/28 04:32:33;;;;;;;18.02;11.23;;;;;;;18.30;72.32;101413.16;2093823;28;20058;-78
2023/02/28 04:33:55;;;;;;;15.82;9.95;;;;;;;18.27;73.04;101398.91;2091971;28;20535;-78
2023/02/28 04:35:16;;;;;;;17.38;10.25;;;;;;;18.23;73.38;101395.38;2091996;28;20852;-77
2023/02/28 04:36:39;;;;;;;19.23;12.00;;;;;;;18.22;73.33;101416.78;2093011;28;20567;-78
2023/02/28 04:38:00;;;;;;;17.10;11.43;;;;;;;18.22;72.73;101412.31;2094149;28;20528;-77
2023/02/28 04:39:24;;;;;;;15.23;11.20;;;;;;;18.24;72.51;101415.88;2093626;28;20044;-77
2023/02/28 04:40:45;;;;;;;20.02;11.20;;;;;;;18.25;72.43;101414.97;2094644;28;20520;-78
2023/02/28 04:42:08;;;;;;;20.58;10.35;;;;;;;18.25;71.57;101417.63;2092834;28;20110;-78
2023/02/28 04:43:31;;;;;;;16.55;10.20;;;;;;;18.26;71.10;101419.41;2094718;28;20049;-78
2023/02/28 04:44:53;;;;;;;26.20;11.57;;;;;;;18.27;70.99;101428.31;2085756;28;20048;-78
2023/02/28 04:46:15;;;;;;;17.00;9.02;;;;;;;18.28;70.59;101432.78;2090932;28;20059;-78
2023/02/28 04:47:37;;;;;;;15.43;10.30;;;;;;;18.32;69.04;101442.53;2086289;28;20440;-78
2023/02/28 04:48:59;;;;;;;16.95;11.13;;;;;;;18.37;68.18;101448.78;2091601;28;20131;-78
2023/02/28 04:50:22;;;;;;;14.93;9.90;;;;;;;18.41;67.24;101453.19;2086249;28;20041;-78
2023/02/28 04:51:43;;;;;;;15.65;9.95;;;;;;;18.44;65.64;101471.91;2091277;28;20095;-78
2023/02/28 04:53:05;;;;;;;14.48;10.27;;;;;;;18.51;64.42;101475.44;2094279;28;20052;-78
2023/02/28 04:54:28;;;;;;;16.98;11.43;;;;;;;18.55;64.44;101486.13;2094277;28;20052;-78
2023/02/28 04:55:50;;;;;;;15.60;9.38;;;;;;;18.58;64.21;101490.56;2085846;28;20435;-79
2023/02/28 04:57:11;;;;;;;15.63;10.40;;;;;;;18.61;63.95;101519.97;2093298;28;20044;-78
2023/02/28 04:58:34;;;;;;;15.75;9.82;;;;;;;18.64;63.80;101541.38;2089682;28;20045;-78
2023/02/28 04:59:57;;;;;;;15.15;10.15;;;;;;;18.66;63.64;101569.00;2093451;28;20044;-79
2023/02/28 05:01:24;;;;;;;18.05;10.80;;;;;;;18.67;63.93;101592.16;2087169;28;20049;-78
2023/02/28 05:02:46;;;;;;;15.40;10.57;;;;;;;18.66;63.94;101598.41;2098936;28;20040;-78
2023/02/28 05:04:10;;;;;;;16.85;9.52;;;;;;;18.68;64.34;101615.34;2094488;28;20421;-78
2023/02/28 05:05:31;;;;;;;18.75;10.85;;;;;;;18.69;64.11;101617.13;2094494;28;20691;-79
2023/02/28 05:06:55;;;;;;;19.00;11.23;;;;;;;18.72;64.18;101611.75;2095653;28;20043;-77
2023/02/28 05:08:17;;;;;;;17.80;11.13;;;;;;;18.73;64.13;101623.34;2097905;28;20048;-78
2023/02/28 05:09:41;;;;;;;21.45;10.50;;;;;;;18.73;64.50;101624.25;2089274;28;20049;-79
2023/02/28 05:11:03;;;;;;;17.40;11.00;;;;;;;18.74;64.78;101633.16;2092747;28;20059;-77
2023/02/28 05:12:25;;;;;;;20.13;10.60;;;;;;;18.76;64.65;101629.59;2096695;28;20146;-79
2023/02/28 05:13:47;;;;;;;19.42;10.50;;;;;;;18.79;64.89;101634.03;2093268;28;20545;-78
2023/02/28 05:15:13;;;;;;;18.60;11.32;;;;;;;18.81;65.21;101645.63;2094070;28;20044;-78
2023/02/28 05:16:36;;;;;;;18.38;10.85;;;;;;;18.81;65.29;101634.91;2094971;28;20052;-79
2023/02/28 05:17:58;;;;;;;17.10;10.55;;;;;;;18.82;65.71;101645.63;2096707;28;20563;-78
2023/02/28 05:19:22;;;;;;;20.92;10.75;;;;;;;18.85;66.06;101661.66;2094465;28;20045;-78
2023/02/28 05:20:44;;;;;;;17.67;10.57;;;;;;;18.88;66.31;101661.66;2088202;28;20133;-78
2023/02/28 05:22:14;;;;;;;17.60;11.88;;;;;;;18.90;66.92;101667.91;2096495;28;20048;-78
2023/02/28 05:23:35;;;;;;;16.67;10.82;;;;;;;18.91;67.41;101669.66;2088457;28;20405;-79
2023/02/28 05:24:59;;;;;;;18.40;10.50;;;;;;;18.92;67.73;101655.38;2087047;28;21653;-78
2023/02/28 05:26:20;;;;;;;22.02;11.68;;;;;;;18.95;67.48;101649.13;2094221;28;20098;-79
2023/02/28 05:27:43;;;;;;;17.92;10.75;;;;;;;18.96;67.92;101638.44;2096639;28;20145;-78
2023/02/28 05:29:04;;;;;;;17.80;10.07;;;;;;;19.00;67.93;101629.47;2092811;28;20052;-77
2023/02/28 05:30:27;;;;;;;18.05;11.20;;;;;;;19.02;67.98;101634.81;2091405;28;20106;-78
2023/02/28 05:31:49;;;;;;;20.55;10.90;;;;;;;19.05;68.43;101630.34;2088428;28;20064;-77
2023/02/28 05:33:12;;;;;;;18.00;10.73;;;;;;;19.10;68.16;101636.53;2102500;28;20114;-78
2023/02/28 05:34:34;;;;;;;19.58;10.82;;;;;;;19.15;68.69;101635.66;2087970;28;20429;-78
2023/02/28 05:35:55;;;;;;;16.45;10.15;;;;;;;19.20;68.88;101639.19;2091234;28;20053;-78
2023/02/28 05:37:18;;;;;;;15.35;10.50;;;;;;;19.22;68.94;101640.97;2087110;28;20037;-78
2023/02/28 05:38:39;;;;;;;17.10;11.18;;;;;;;19.29;69.97;101653.44;2083903;28;20056;-78
2023/02/28 05:40:05;;;;;;;19.48;11.15;;;;;;;19.35;70.83;101652.50;2081855;28;20061;-77
2023/02/28 05:41:27;;;;;;;16.60;10.35;;;;;;;19.37;71.13;101653.34;2093053;28;20444;-78
2023/02/28 05:42:51;;;;;;;17.25;10.68;;;;;;;19.43;70.02;101645.28;2083134;28;20127;-78
2023/02/28 05:44:13;;;;;;;16.67;10.18;;;;;;;19.46;69.64;101632.81;2091834;28;20054;-78
2023/02/28 05:45:35;;;;;;;16.55;10.25;;;;;;;19.49;68.94;101615.84;2092926;28;20485;-78
2023/02/28 05:46:58;;;;;;;18.38;11.63;;;;;;;19.50;69.38;101626.50;2092927;28;20048;-78
2023/02/28 05:48:19;;;;;;;17.30;11.00;;;;;;;19.50;69.84;101649.72;2094156;28;20603;-77
2023/02/28 05:49:41;;;;;;;26.48;16.48;;;;;;;19.50;70.29;101663.13;2091547;28;20057;-78
2023/02/28 05:51:04;;;;;;;21.63;14.82;;;;;;;19.50;70.37;101681.88;2089416;28;20528;-78
2023/02/28 05:52:26;;;;;;;29.38;18.15;;;;;;;19.50;70.92;101714.91;2090971;28;20059;-79
2023/02/28 05:53:48;;;;;;;27.20;14.48;;;;;;;19.52;71.80;101736.34;2084412;28;20068;-78
2023/02/28 05:55:13;;;;;;;19.35;11.75;;;;;;;19.53;71.79;101756.88;2097153;28;20490;-78
2023/02/28 05:56:37;;;;;;;16.75;10.85;;;;;;;19.57;71.94;101760.41;2088414;28;20041;-78
2023/02/28 05:57:58;;;;;;;16.92;11.32;;;;;;;19.61;71.95;101743.44;2086704;28;20406;-78
2023/02/28 05:59:21;;;;;;;19.52;11.57;;;;;;;19.71;72.65;101735.31;2086736;28;20044;-78
2023/02/28 06:00:42;;;;;;;21.20;11.13;;;;;;;19.79;74.12;101720.09;2096074;28;20047;-78
2023/02/28 06:02:04;;;;;;;18.90;10.70;;;;;;;19.87;75.40;101709.31;2099492;28;20398;-77
2023/02/28 06:03:27;;;;;;;18.45;11.77;;;;;;;19.93;76.03;101685.16;2089786;28;20060;-77
2023/02/28 06:04:49;;;;;;;18.75;12.07;;;;;;;19.99;77.26;101669.00;2088478;28;20055;-77
2023/02/28 06:06:12;;;;;;;15.02;10.70;;;;;;;20.00;77.89;101670.78;2095131;28;20048;-78
2023/02/28 06:07:35;;;;;;;17.63;11.60;;;;;;;20.05;78.24;101660.03;2093295;28;20063;-77
2023/02/28 06:08:58;;;;;;;18.92;11.65;;;;;;;20.08;78.17;101650.19;2094061;28;20377;-77
2023/02/28 06:10:21;;;;;;;20.50;11.63;;;;;;;20.17;78.76;101649.19;2092621;28;20159;-78
2023/02/28 06:11:44;;;;;;;29.45;17.85;;;;;;;20.23;79.20;101624.97;2085486;28;20101;-78
2023/02/28 06:13:07;;;;;;;30.85;20.45;;;;;;;20.33;80.35;101615.09;2095733;28;20104;-77
2023/02/28 06:14:30;;;;;;;22.50;14.20;;;;;;;20.46;80.44;101617.63;2094099;28;20052;-78
2023/02/28 06:15:53;;;;;;;23.10;14.05;;;;;;;20.58;80.54;101617.47;2084546;28;20603;-78
2023/02/28 06:17:15;;;;;;;17.02;11.55;;;;;;;20.71;80.88;101615.53;2081995;28;20073;-77
2023/02/28 06:18:37;;;;;;;16.73;11.95;;;;;;;20.85;80.23;101610.00;2084480;28;20049;-78
2023/02/28 06:20:00;;;;;;;19.27;12.32;;;;;;;21.00;77.24;101615.16;2091105;28;20393;-78
2023/02/28 06:21:22;;;;;;;17.58;10.60;;;;;;;21.10;74.03;101606.06;2083773;28;20425;-77
2023/02/28 06:22:44;;;;;;;18.00;11.85;;;;;;;21.18;72.70;101598.81;2093596;28;20079;-77
2023/02/28 06:24:07;;;;;;;21.23;11.85;;;;;;;21.24;71.95;101600.53;2092389;28;20409;-77
2023/02/28 06:25:30;;;;;;;19.85;11.50;;;;;;;21.24;71.89;101595.16;2084961;28;20440;-78
2023/02/28 06:26:53;;;;;;;20.40;11.30;;;;;;;21.25;72.67;101605.00;2097398;28;20446;-77
2023/02/28 06:28:15;;;;;;;15.77;10.93;;;;;;;21.25;73.56;101608.56;2099936;28;20048;-77
2023/02/28 06:29:39;;;;;;;18.85;11.10;;;;;;;21.28;75.01;101610.31;2093364;28;20661;-77